Hearst, Canada
Current Conditions -  °F | °C
As of 12:00 PM on Thursday 30 Oct 2014 (Local Time) from CYYU Reporting Station
Light Snow Light Snow  
Wind Chill: 20°   Ceiling: 1500
Heat Index: 28°   Visibility: 3mi
Dew Point: 25°   Wind: 8mph
Humidity: 86%   Direction: 290°WNW
Pressure: 30.03"   Gusts: NA
Location:  49.69°N, 83.66°W
Report Text: CYYU 301600Z 29007KT 260V330 3SM -SN SCT005 BKN015 OVC200 M02/M04 A3003 RMK SF4SC3CC1 CIG RAG VIS VRB 21/4-4 SLP184
Loading
Personal Weather Stations






























Interactive Weather Map
Tropical Storm Tracking
New forecast layout! Learn more

10-Day Weather Forecast

Advertisements
Track Severe Weather on mobile